Aviation Digital Data Service (ADDS)

Output produced by METARs form (0155 UTC 16 July 2019)
found at http://www.aviationweather.gov/metar/data/
 
Forecast for: ZSHC (HANGZHOU/JIANQIA, CN)
Text: TAF ZSHC 151922Z 1600/1624 10003MPS 3000 BR SCT007 BKN020 TX29/1606Z TN24/1621Z
Forecast period: 0000 UTC 16 July 2019 to 0000 UTC 17 July 2019
Forecast type: FROM: standard forecast or significant change
Winds: from the E (100 degrees) at 7 MPH (6 knots; 3.1 m/s)
Visibility: 1.86 miles (2.99 km)
Ceiling: 2000 feet AGL
Clouds: scattered clouds at 700 feet AGL
broken clouds at 2000 feet AGL
Weather: BR  (mist)
Text: TEMPO 1600/1606 2500 SHRA BR SCT007 BKN020CB FEW030CB
Forecast period: 0000 to 0600 UTC 16 July 2019
Forecast type: TEMPORARY: The following changes expected for less than half the time period
Visibility: 1.55 miles (2.49 km)
Ceiling: 2000 feet AGL
Clouds: scattered clouds at 700 feet AGL
broken clouds at 2000 feet AGL
few clouds at 3000 feet AGL
Weather: SHRA BR  (rain showers, mist)